LIMF Airport Information

Runway Information
Runway 18 Length 10827 ft width 197 ft
Elevation 981 ft Threshold 2378 ft Heading 183
Runway 36 Length 10827 ft Width 197 ft
Elevation 933 ft Threshold 1148 ft Heading 3
Airport Frequencies
Type APP Name APP Frequency 23.44 MHZ
Type APP Name APP Frequency 129.275 MHZ
Type ATIS Name ATIS Frequency 120.475 MHZ
Type GND Name GND Frequency 121.7 MHZ
Type TWR Name TWR Frequency 118.5 MHZ
Airport Navaids
Type TACAN Name Caselle Frequency 109500 KHZ
Type NDB Name Caselle Frequency 357 KHZ
Type VOR-DME Name Caselle Frequency 116750 KHZ
Type VOR-DME Name Torino Frequency 114500 KHZ
Type NDB Name Torino Frequency 393 KHZ
Airport Weather Information & NOTAM
ADDS - METARS form results

(1007 UTC 04 August 2021)
Data provider http://aviationweather.gov/metar/data/
 
METAR text: LIMF 040950Z 08004KT 040V110 9999 -RA FEW035 SCT050 OVC100 20/17 Q1013
Conditions at: LIMF (TORINO/CASELLE , IT) observed 0950 UTC 04 August 2021
Temperature: 20.0°C (68°F)
Dewpoint: 17.0°C (63°F) [RH = 83%]
Pressure (altimeter): 29.91 inches Hg (1013.0 mb)
Winds: from the E (80 degrees) at 5 MPH (4 knots; 2.1 m/s)
Visibility: 6 or more miles (10+ km)
Ceiling: 10000 feet AGL
Clouds: few clouds at 3500 feet AGL
scattered clouds at 5000 feet AGL
overcast cloud deck at 10000 feet AGL
Weather: -RA  (light rain)

METAR text: LIMF 040920Z 07003KT 040V100 9999 SCT050 BKN110 20/16 Q1013
Conditions at: LIMF (TORINO/CASELLE , IT) observed 0920 UTC 04 August 2021
Temperature: 20.0°C (68°F)
Dewpoint: 16.0°C (61°F) [RH = 78%]
Pressure (altimeter): 29.91 inches Hg (1013.0 mb)
Winds: from the ENE (70 degrees) at 3 MPH (3 knots; 1.5 m/s)
Visibility: 6 or more miles (10+ km)
Ceiling: 11000 feet AGL
Clouds: scattered clouds at 5000 feet AGL
broken clouds at 11000 feet AGL
Weather: no significant weather observed at this time

Forecast for: LIMF (TORINO/CASELLE , IT)
Text: TAF LIMF 040500Z 0406/0506 VRB05KT 9999 SCT060
Forecast period: 0600 UTC 04 August 2021 to 0600 UTC 05 August 2021
Forecast type: FROM: standard forecast or significant change
Winds: variable direction winds at 6 MPH (5 knots; 2.6 m/s)
Visibility: 6 or more miles (10+ km)
Ceiling: at least 12,000 feet AGL
Clouds: scattered clouds at 6000 feet AGL
Weather: no significant weather forecast for this period
Text: TEMPO 0409/0418 4000 TSRA
Forecast period: 0900 to 1800 UTC 04 August 2021
Forecast type: TEMPORARY: The following changes expected for less than half the time period
Visibility: 2.49 miles (4.01 km)
Ceiling: unknown
Clouds: missing
Weather: TSRA  (rain associated with thunderstorm(s))